Time;durP1;ratioP1;P1;durP2;ratioP2;P2;SDS_P1;SDS_P2;PMS_P1;PMS_P2;Temp;Humidity;BMP_temperature;BMP_pressure;BME280_temperature;BME280_humidity;BME280_pressure;Samples;Min_cycle;Max_cycle;Signal;HPM_P1;HPM_P2
2021/12/09 00:02:02;;;;;;;19.25;7.72;;;2.80;99.90;;;;;;4991980;28;20034;-48
2021/12/09 00:04:30;;;;;;;19.30;8.23;;;2.80;99.90;;;;;;4991698;28;20070;-48
2021/12/09 00:06:59;;;;;;;20.38;8.20;;;2.80;99.90;;;;;;4992214;28;20121;-48
2021/12/09 00:09:25;;;;;;;14.32;7.57;;;2.80;99.90;;;;;;4991312;28;20061;-51
2021/12/09 00:11:52;;;;;;;17.45;7.50;;;2.80;99.90;;;;;;4990640;28;20038;-51
2021/12/09 00:14:25;;;;;;;15.48;7.82;;;2.80;99.90;;;;;;4966795;28;20035;-50
2021/12/09 00:16:53;;;;;;;15.30;7.78;;;2.90;99.90;;;;;;4991406;28;20073;-48
2021/12/09 00:19:19;;;;;;;19.30;7.80;;;2.80;99.90;;;;;;4990811;28;20046;-48
2021/12/09 00:21:45;;;;;;;19.33;8.35;;;2.80;99.90;;;;;;4991647;28;20034;-48
2021/12/09 00:24:11;;;;;;;20.08;8.50;;;2.80;99.90;;;;;;4989449;28;20048;-50
2021/12/09 00:26:38;;;;;;;15.93;8.15;;;2.80;99.90;;;;;;4990500;28;20046;-48
2021/12/09 00:29:06;;;;;;;15.25;9.15;;;2.80;99.90;;;;;;4969382;28;20034;-49
2021/12/09 00:31:32;;;;;;;16.20;7.93;;;2.80;99.90;;;;;;4991451;28;20050;-48
2021/12/09 00:34:47;;;;;;;17.30;8.05;;;2.70;99.90;;;;;;4977349;28;20042;-50
2021/12/09 00:39:59;;;;;;;16.92;8.18;;;2.70;99.90;;;;;;4991690;28;20046;-52
2021/12/09 00:42:26;;;;;;;16.52;8.35;;;2.80;99.90;;;;;;4991050;28;20122;-51
2021/12/09 00:44:53;;;;;;;15.00;8.68;;;2.70;99.90;;;;;;4991741;28;20376;-49
2021/12/09 00:47:19;;;;;;;15.82;8.00;;;2.70;99.90;;;;;;4989871;28;20050;-50
2021/12/09 00:49:45;;;;;;;17.88;8.30;;;2.70;99.90;;;;;;4991842;28;20031;-49
2021/12/09 00:52:51;;;;;;;14.18;8.20;;;2.70;99.90;;;;;;4991016;28;20117;-49
2021/12/09 00:55:44;;;;;;;14.90;8.30;;;2.70;99.90;;;;;;4996332;28;20045;-48
2021/12/09 00:58:09;;;;;;;18.60;8.45;;;2.60;99.90;;;;;;4991633;28;20042;-48
2021/12/09 01:00:35;;;;;;;16.90;8.82;;;2.70;99.90;;;;;;4991432;28;20046;-52
2021/12/09 01:03:01;;;;;;;17.45;8.45;;;2.70;99.90;;;;;;4995076;28;20057;-51
2021/12/09 01:05:27;;;;;;;15.80;8.35;;;2.70;99.90;;;;;;4995073;28;20414;-51
2021/12/09 01:07:54;;;;;;;15.93;8.77;;;2.60;99.90;;;;;;4994832;28;20049;-51
2021/12/09 01:10:21;;;;;;;17.23;8.90;;;2.60;99.90;;;;;;4995613;28;20471;-50
2021/12/09 01:12:46;;;;;;;17.55;8.77;;;2.70;99.90;;;;;;4994942;28;20391;-51
2021/12/09 01:15:15;;;;;;;18.02;9.02;;;2.60;99.90;;;;;;4994949;28;20556;-49
2021/12/09 01:17:41;;;;;;;16.38;9.13;;;2.70;99.90;;;;;;4995233;28;20046;-51
2021/12/09 01:20:09;;;;;;;18.25;9.10;;;2.70;99.90;;;;;;4995074;28;20053;-49
2021/12/09 01:22:42;;;;;;;17.30;8.40;;;2.70;99.90;;;;;;4994878;28;20042;-51
2021/12/09 01:25:17;;;;;;;14.77;8.57;;;2.60;99.90;;;;;;4977512;28;20062;-50
2021/12/09 01:27:46;;;;;;;16.77;8.52;;;2.60;99.90;;;;;;4961083;28;20042;-52
2021/12/09 01:30:16;;;;;;;14.52;8.32;;;2.60;99.90;;;;;;4993825;28;20042;-50
2021/12/09 01:32:49;;;;;;;17.15;8.45;;;2.60;99.90;;;;;;4993820;28;20603;-51
2021/12/09 01:35:16;;;;;;;14.95;8.52;;;2.50;99.90;;;;;;4995360;28;20050;-50
2021/12/09 01:37:42;;;;;;;18.98;8.40;;;2.60;99.90;;;;;;4996065;28;20046;-50
2021/12/09 01:40:09;;;;;;;15.57;9.02;;;2.60;99.90;;;;;;4995130;28;20100;-52
2021/12/09 01:42:35;;;;;;;19.83;9.27;;;2.60;99.90;;;;;;4991636;28;20039;-47
2021/12/09 01:45:02;;;;;;;16.67;8.27;;;2.60;99.90;;;;;;4993406;28;20597;-47
2021/12/09 01:47:28;;;;;;;18.05;9.43;;;2.60;99.90;;;;;;4994733;28;20038;-49
2021/12/09 01:49:55;;;;;;;16.23;8.57;;;2.50;99.90;;;;;;4987610;28;20046;-51
2021/12/09 01:52:20;;;;;;;17.45;8.32;;;2.50;99.90;;;;;;4987809;28;20039;-48
2021/12/09 01:54:46;;;;;;;21.40;8.85;;;2.50;99.90;;;;;;4988278;28;20038;-48
2021/12/09 01:57:12;;;;;;;13.45;7.90;;;2.50;99.90;;;;;;4991684;28;20503;-47
2021/12/09 01:59:37;;;;;;;16.27;8.88;;;2.50;99.90;;;;;;4987335;28;20046;-50
2021/12/09 02:02:04;;;;;;;22.42;8.90;;;2.50;99.90;;;;;;4976209;28;20387;-48
2021/12/09 02:04:31;;;;;;;17.73;8.60;;;2.40;99.90;;;;;;4959688;28;20130;-47
2021/12/09 02:06:57;;;;;;;22.90;9.60;;;2.40;99.90;;;;;;4993027;28;20399;-47
2021/12/09 02:09:23;;;;;;;22.45;9.40;;;2.40;99.90;;;;;;4993305;28;20038;-47
2021/12/09 02:13:03;;;;;;;16.27;9.13;;;2.40;99.90;;;;;;4981489;28;20066;-48
2021/12/09 02:15:52;;;;;;;22.35;9.50;;;2.30;99.90;;;;;;4994417;28;20050;-53
2021/12/09 02:18:20;;;;;;;17.90;9.27;;;2.30;99.90;;;;;;4994525;28;20042;-53
2021/12/09 02:20:46;;;;;;;17.85;9.07;;;2.30;99.90;;;;;;4987923;28;20038;-51
2021/12/09 02:23:16;;;;;;;17.48;9.82;;;2.30;99.90;;;;;;4994511;28;20042;-52
2021/12/09 02:25:44;;;;;;;16.67;9.77;;;2.30;99.90;;;;;;4981861;28;20551;-53
2021/12/09 02:28:15;;;;;;;16.27;9.30;;;2.30;99.90;;;;;;4974177;28;20051;-52
2021/12/09 02:30:42;;;;;;;18.90;9.45;;;2.30;99.90;;;;;;4975173;28;20039;-50
2021/12/09 02:33:07;;;;;;;14.90;9.13;;;2.30;99.90;;;;;;4981409;28;20038;-49
2021/12/09 02:35:33;;;;;;;18.75;9.77;;;2.20;99.90;;;;;;4994172;28;20049;-49
2021/12/09 02:37:59;;;;;;;18.08;8.88;;;2.30;99.90;;;;;;4994436;28;20053;-51
2021/12/09 02:40:25;;;;;;;20.35;9.25;;;2.30;99.90;;;;;;4994331;28;20783;-53
2021/12/09 02:42:50;;;;;;;17.52;9.23;;;2.20;99.90;;;;;;4994344;28;20509;-51
2021/12/09 02:45:16;;;;;;;15.27;8.75;;;2.20;99.90;;;;;;4993350;28;20026;-52
2021/12/09 02:47:41;;;;;;;17.20;9.07;;;2.20;99.90;;;;;;4994000;28;20046;-49
2021/12/09 02:50:08;;;;;;;18.25;9.63;;;2.20;99.90;;;;;;4994014;28;20102;-49
2021/12/09 02:52:34;;;;;;;16.55;9.30;;;2.20;99.90;;;;;;4992927;28;20049;-49
2021/12/09 02:55:00;;;;;;;15.27;9.13;;;2.20;99.90;;;;;;4994334;28;20410;-50
2021/12/09 02:57:26;;;;;;;17.80;9.10;;;2.30;99.90;;;;;;4992904;28;20092;-48
2021/12/09 02:59:52;;;;;;;18.70;9.73;;;2.30;99.90;;;;;;4994383;28;20038;-50
2021/12/09 03:02:19;;;;;;;19.23;9.32;;;2.30;99.90;;;;;;4993819;28;20035;-51
2021/12/09 03:04:51;;;;;;;19.15;9.98;;;2.20;99.90;;;;;;4992774;28;20476;-49
2021/12/09 03:07:19;;;;;;;16.52;9.13;;;2.30;99.90;;;;;;4982369;28;20046;-49
2021/12/09 03:09:50;;;;;;;18.02;9.63;;;2.30;99.90;;;;;;4993873;28;20462;-50
2021/12/09 03:12:25;;;;;;;20.43;9.83;;;2.20;99.90;;;;;;4993874;28;20066;-50
2021/12/09 03:14:52;;;;;;;21.50;10.30;;;2.20;99.90;;;;;;4994153;28;20278;-49
2021/12/09 03:17:18;;;;;;;21.20;9.30;;;2.20;99.90;;;;;;4994267;28;20037;-51
2021/12/09 03:19:45;;;;;;;19.02;10.20;;;2.10;99.90;;;;;;4994213;28;20034;-50
2021/12/09 03:22:12;;;;;;;21.98;9.90;;;2.10;99.90;;;;;;4994161;28;20038;-47
2021/12/09 03:24:38;;;;;;;21.08;9.80;;;2.10;99.90;;;;;;4993174;28;20117;-49
2021/12/09 03:27:04;;;;;;;23.25;10.48;;;2.10;99.90;;;;;;4992419;28;20586;-49
2021/12/09 03:29:30;;;;;;;17.67;9.63;;;2.00;99.90;;;;;;4993585;28;20038;-49
2021/12/09 03:32:01;;;;;;;22.50;9.48;;;2.00;99.90;;;;;;4991928;28;20050;-50
2021/12/09 03:34:29;;;;;;;17.75;9.75;;;2.00;99.90;;;;;;4993363;28;20047;-49
2021/12/09 03:36:57;;;;;;;19.35;9.40;;;2.10;99.90;;;;;;4993335;28;20042;-48
2021/12/09 03:39:27;;;;;;;16.92;10.07;;;2.00;99.90;;;;;;4993280;28;20422;-49
2021/12/09 03:41:54;;;;;;;18.05;9.60;;;2.00;99.90;;;;;;4992795;28;20046;-51
2021/12/09 03:44:21;;;;;;;16.33;9.55;;;1.90;99.90;;;;;;4993277;28;20074;-51
2021/12/09 03:46:48;;;;;;;22.52;10.52;;;1.90;99.90;;;;;;4992879;28;20034;-51
2021/12/09 03:49:13;;;;;;;16.65;9.50;;;1.90;99.90;;;;;;4993170;28;20042;-50
2021/12/09 03:51:39;;;;;;;21.63;10.23;;;1.90;99.90;;;;;;4993172;28;20048;-50
2021/12/09 03:54:07;;;;;;;19.60;9.70;;;1.90;99.90;;;;;;4992836;28;20042;-52
2021/12/09 03:56:34;;;;;;;20.80;9.98;;;1.90;99.90;;;;;;4993000;28;20039;-51
2021/12/09 03:59:00;;;;;;;16.42;9.68;;;1.90;99.90;;;;;;4992917;28;20084;-52
2021/12/09 04:01:26;;;;;;;19.58;10.20;;;1.80;99.90;;;;;;4992909;28;20070;-51
2021/12/09 04:03:53;;;;;;;20.50;10.38;;;1.80;99.90;;;;;;4992724;28;20046;-51
2021/12/09 04:06:19;;;;;;;20.50;9.73;;;1.90;99.90;;;;;;4992818;28;20557;-49
2021/12/09 04:08:45;;;;;;;15.88;9.52;;;1.90;99.90;;;;;;4992581;28;20053;-48
2021/12/09 04:11:11;;;;;;;17.48;9.50;;;1.90;99.90;;;;;;4991472;28;20055;-49
2021/12/09 04:13:38;;;;;;;18.63;9.73;;;1.90;99.90;;;;;;4991955;28;20042;-49
2021/12/09 04:16:07;;;;;;;19.88;9.80;;;1.90;99.90;;;;;;4992616;28;20050;-52
2021/12/09 04:18:33;;;;;;;16.25;9.82;;;2.00;99.90;;;;;;4992639;28;20053;-47
2021/12/09 04:20:59;;;;;;;21.85;10.98;;;2.00;99.90;;;;;;4992556;28;20068;-51
2021/12/09 04:23:25;;;;;;;22.10;11.18;;;1.90;99.90;;;;;;4990081;28;20743;-50
2021/12/09 04:25:52;;;;;;;19.40;10.43;;;1.90;99.90;;;;;;4980369;28;20038;-48
2021/12/09 04:28:18;;;;;;;18.70;9.88;;;1.90;99.90;;;;;;4982101;28;20082;-48
2021/12/09 04:30:44;;;;;;;20.50;10.38;;;1.90;99.90;;;;;;4992103;28;20042;-49
2021/12/09 04:33:09;;;;;;;18.15;10.00;;;1.80;99.90;;;;;;4991795;28;20110;-51
2021/12/09 04:35:35;;;;;;;23.58;10.60;;;1.90;99.90;;;;;;4991412;28;20045;-47
2021/12/09 04:38:01;;;;;;;20.05;10.05;;;1.80;99.90;;;;;;4992340;28;20046;-47
2021/12/09 04:40:26;;;;;;;21.65;10.55;;;1.90;99.90;;;;;;4990957;28;20038;-52
2021/12/09 04:42:52;;;;;;;20.30;10.52;;;1.90;99.90;;;;;;4992066;28;20046;-51
2021/12/09 04:45:17;;;;;;;18.00;9.40;;;1.80;99.90;;;;;;4992433;28;20038;-49
2021/12/09 04:47:43;;;;;;;17.98;10.82;;;1.80;99.90;;;;;;4992084;28;20042;-51
2021/12/09 04:50:11;;;;;;;22.05;10.35;;;1.80;99.90;;;;;;4992012;28;20057;-47
2021/12/09 04:52:37;;;;;;;21.40;10.73;;;1.80;99.90;;;;;;4991602;28;20743;-49
2021/12/09 04:55:05;;;;;;;17.92;10.77;;;1.80;99.90;;;;;;4991816;28;20049;-51
2021/12/09 04:57:31;;;;;;;23.88;10.85;;;1.70;99.90;;;;;;4992028;28;20053;-52
2021/12/09 04:59:56;;;;;;;19.67;10.80;;;1.70;99.90;;;;;;4992034;28;20099;-50
2021/12/09 05:02:30;;;;;;;20.10;9.68;;;1.70;99.90;;;;;;4991970;28;20038;-50
2021/12/09 05:04:56;;;;;;;20.05;11.32;;;1.70;99.90;;;;;;4992042;28;20054;-50
2021/12/09 05:07:23;;;;;;;22.65;10.93;;;1.70;99.90;;;;;;4991512;28;20049;-50
2021/12/09 05:09:52;;;;;;;22.42;10.63;;;1.70;99.90;;;;;;4991000;28;20406;-51
2021/12/09 05:12:19;;;;;;;20.08;10.00;;;1.70;99.90;;;;;;4992070;28;20038;-50
2021/12/09 05:14:45;;;;;;;21.90;10.10;;;1.70;99.90;;;;;;4991790;28;20121;-52
2021/12/09 05:17:11;;;;;;;20.05;10.10;;;1.70;99.90;;;;;;4992107;28;20156;-50
2021/12/09 05:19:37;;;;;;;18.35;9.60;;;1.70;99.90;;;;;;4991974;28;20042;-51
2021/12/09 05:22:03;;;;;;;20.63;10.68;;;1.80;99.90;;;;;;4991672;28;20049;-51
2021/12/09 05:24:29;;;;;;;19.02;10.05;;;1.80;99.90;;;;;;4991978;28;20092;-51
2021/12/09 05:26:56;;;;;;;20.35;10.27;;;1.80;99.90;;;;;;4991988;28;20122;-48
2021/12/09 05:29:28;;;;;;;18.05;10.85;;;1.70;99.90;;;;;;4974506;28;20483;-48
2021/12/09 05:32:10;;;;;;;19.60;10.60;;;1.70;99.90;;;;;;4991306;28;20125;-50
2021/12/09 05:34:40;;;;;;;22.25;10.57;;;1.70;99.90;;;;;;4990830;28;20038;-50
2021/12/09 05:37:08;;;;;;;21.73;9.65;;;1.70;99.90;;;;;;4992014;28;20042;-49
2021/12/09 05:39:37;;;;;;;21.10;10.60;;;1.70;99.90;;;;;;4986593;28;20073;-51
2021/12/09 05:42:04;;;;;;;20.20;11.02;;;1.60;99.90;;;;;;4973995;28;20081;-48
2021/12/09 05:44:30;;;;;;;21.95;11.38;;;1.60;99.90;;;;;;4991918;28;20458;-52
2021/12/09 05:46:57;;;;;;;19.58;10.27;;;1.60;99.90;;;;;;4991662;28;20518;-52
2021/12/09 05:49:22;;;;;;;23.70;11.32;;;1.50;99.90;;;;;;4995130;28;20054;-47
2021/12/09 05:51:48;;;;;;;21.45;10.65;;;1.50;99.90;;;;;;4995188;28;20041;-52
2021/12/09 05:54:14;;;;;;;18.08;10.50;;;1.50;99.90;;;;;;4994199;28;20487;-48
2021/12/09 05:56:40;;;;;;;18.35;10.38;;;1.50;99.90;;;;;;4995089;28;20046;-51
2021/12/09 05:59:07;;;;;;;19.88;10.50;;;1.60;99.90;;;;;;4994734;28;20478;-52
2021/12/09 06:01:33;;;;;;;22.55;10.50;;;1.50;99.90;;;;;;4992675;28;20480;-51
2021/12/09 06:03:59;;;;;;;24.95;11.57;;;1.50;99.90;;;;;;4994199;28;20380;-50
2021/12/09 06:06:25;;;;;;;18.75;9.90;;;1.50;99.90;;;;;;4995141;28;20041;-50
2021/12/09 06:08:50;;;;;;;22.13;10.88;;;1.50;99.90;;;;;;4994476;28;20038;-48
2021/12/09 06:11:17;;;;;;;22.05;10.77;;;1.50;99.90;;;;;;4981346;28;20034;-47
2021/12/09 06:13:44;;;;;;;21.67;11.30;;;1.50;99.90;;;;;;4992019;28;20117;-51
2021/12/09 06:16:10;;;;;;;20.65;10.57;;;1.50;99.90;;;;;;4992547;28;20495;-51
2021/12/09 06:18:36;;;;;;;25.77;11.52;;;1.50;99.90;;;;;;4990677;28;20642;-48
2021/12/09 06:21:03;;;;;;;22.80;11.50;;;1.40;99.90;;;;;;4988123;28;20081;-49
2021/12/09 06:23:28;;;;;;;20.75;10.60;;;1.40;99.90;;;;;;4988257;28;20699;-50
2021/12/09 06:25:54;;;;;;;22.95;11.18;;;1.40;99.90;;;;;;4991496;28;20026;-50
2021/12/09 06:28:20;;;;;;;23.40;11.63;;;1.40;99.90;;;;;;4975563;28;20038;-49
2021/12/09 06:30:46;;;;;;;22.00;11.15;;;1.30;99.90;;;;;;4993270;28;20462;-52
2021/12/09 06:33:15;;;;;;;21.90;11.75;;;1.30;99.90;;;;;;4994626;28;20399;-50
2021/12/09 06:35:40;;;;;;;19.92;11.35;;;1.30;99.90;;;;;;4992862;28;20049;-48
2021/12/09 06:38:11;;;;;;;23.48;11.05;;;1.30;99.90;;;;;;4988756;28;20407;-49
2021/12/09 06:40:37;;;;;;;20.92;10.23;;;1.30;99.90;;;;;;4994277;28;20046;-47
2021/12/09 06:43:03;;;;;;;29.92;11.65;;;1.30;99.90;;;;;;4993720;28;20038;-50
2021/12/09 06:45:29;;;;;;;21.52;10.65;;;1.30;99.90;;;;;;4993691;28;20168;-49
2021/12/09 06:47:54;;;;;;;22.52;10.07;;;1.30;99.90;;;;;;4993962;28;20038;-50
2021/12/09 06:50:22;;;;;;;21.77;11.18;;;1.30;99.90;;;;;;4992666;28;20040;-48
2021/12/09 06:52:47;;;;;;;19.63;9.82;;;1.30;99.90;;;;;;4993495;28;20049;-52
2021/12/09 06:55:15;;;;;;;25.95;10.10;;;1.40;99.90;;;;;;4994096;28;20042;-51
2021/12/09 06:57:44;;;;;;;18.77;9.80;;;1.30;99.90;;;;;;4993459;28;20177;-50
2021/12/09 07:00:13;;;;;;;23.40;10.23;;;1.30;99.90;;;;;;4990266;28;20042;-51
2021/12/09 07:02:39;;;;;;;21.77;9.90;;;1.30;99.90;;;;;;4991507;28;20050;-50
2021/12/09 07:05:06;;;;;;;23.67;10.15;;;1.30;99.90;;;;;;4992362;28;20412;-52
2021/12/09 07:07:32;;;;;;;22.65;9.80;;;1.30;99.90;;;;;;4992825;28;20072;-52
2021/12/09 07:09:58;;;;;;;20.25;9.27;;;1.40;99.90;;;;;;4991430;28;20074;-53
2021/12/09 07:12:23;;;;;;;25.13;10.38;;;1.40;99.90;;;;;;4992591;28;20494;-54
2021/12/09 07:14:49;;;;;;;21.83;10.15;;;1.40;99.90;;;;;;4992568;28;20089;-52
2021/12/09 07:17:16;;;;;;;23.98;10.60;;;1.40;99.90;;;;;;4993051;28;20113;-50
2021/12/09 07:19:42;;;;;;;21.27;9.93;;;1.40;99.90;;;;;;4992536;28;20039;-51
2021/12/09 07:22:08;;;;;;;18.90;8.55;;;1.40;99.90;;;;;;4991603;28;20042;-51
2021/12/09 07:24:34;;;;;;;20.88;9.32;;;1.40;99.90;;;;;;4992503;28;20030;-54
2021/12/09 07:27:00;;;;;;;19.75;9.25;;;1.50;99.90;;;;;;4992612;28;20043;-52
2021/12/09 07:29:27;;;;;;;20.10;9.70;;;1.50;99.90;;;;;;4975934;28;20057;-50
2021/12/09 07:31:52;;;;;;;16.70;8.85;;;1.50;99.90;;;;;;4992806;28;20069;-49
2021/12/09 07:34:18;;;;;;;23.95;9.07;;;1.50;99.90;;;;;;4993507;28;20078;-49
2021/12/09 07:36:44;;;;;;;17.13;8.82;;;1.50;99.90;;;;;;4991192;28;20050;-50
2021/12/09 07:39:10;;;;;;;17.23;9.05;;;1.50;99.90;;;;;;4994099;28;20044;-48
2021/12/09 07:41:35;;;;;;;20.08;9.48;;;1.60;99.90;;;;;;4991112;28;20045;-48
2021/12/09 07:44:02;;;;;;;17.60;9.35;;;1.60;99.90;;;;;;4992699;28;20156;-50
2021/12/09 07:46:32;;;;;;;22.63;9.45;;;1.60;99.90;;;;;;4992965;28;20052;-50
2021/12/09 07:48:58;;;;;;;17.42;8.38;;;1.60;99.90;;;;;;4993247;28;20082;-51
2021/12/09 07:51:24;;;;;;;25.60;10.77;;;1.60;99.90;;;;;;4992757;28;20069;-52
2021/12/09 07:53:50;;;;;;;23.75;11.95;;;1.60;99.90;;;;;;4992827;28;20038;-50
2021/12/09 07:56:16;;;;;;;21.38;9.60;;;1.60;99.90;;;;;;4992799;28;20050;-50
2021/12/09 07:58:41;;;;;;;19.85;9.13;;;1.60;99.90;;;;;;4993336;28;20048;-51
2021/12/09 08:01:07;;;;;;;18.38;9.15;;;1.60;99.90;;;;;;4993351;28;20125;-48
2021/12/09 08:03:33;;;;;;;24.02;8.95;;;1.60;99.90;;;;;;4993019;28;20038;-49
2021/12/09 08:05:59;;;;;;;15.93;8.55;;;1.60;99.90;;;;;;4993096;28;20105;-50
2021/12/09 08:08:25;;;;;;;20.42;9.18;;;2.40;99.90;;;;;;4993090;28;20044;-50
2021/12/09 08:10:51;;;;;;;17.25;8.77;;;1.60;99.90;;;;;;4992665;28;20094;-53
2021/12/09 08:13:16;;;;;;;20.95;8.80;;;1.60;99.90;;;;;;4993169;28;20041;-52
2021/12/09 08:15:50;;;;;;;19.30;9.23;;;1.60;99.90;;;;;;4985249;28;20057;-51
2021/12/09 08:20:45;;;;;;;17.60;9.32;;;1.60;99.90;;;;;;4990475;28;20053;-49
2021/12/09 08:23:11;;;;;;;16.13;8.60;;;1.70;99.90;;;;;;4990703;28;20121;-51
2021/12/09 08:25:37;;;;;;;24.13;10.15;;;1.70;99.90;;;;;;4989845;28;20621;-52
2021/12/09 08:28:04;;;;;;;21.38;10.15;;;1.70;99.90;;;;;;4990715;28;20054;-51
2021/12/09 08:30:30;;;;;;;19.90;8.30;;;1.70;99.90;;;;;;4990746;28;20030;-49
2021/12/09 08:32:56;;;;;;;19.95;8.25;;;1.80;99.90;;;;;;4989207;28;20050;-49
2021/12/09 08:35:22;;;;;;;21.15;7.90;;;1.80;99.90;;;;;;4990709;28;20053;-48
2021/12/09 08:37:49;;;;;;;20.83;8.05;;;1.90;99.90;;;;;;4992211;28;20118;-50
2021/12/09 08:40:15;;;;;;;24.48;10.57;;;1.90;99.90;;;;;;4992098;28;20451;-48
2021/12/09 08:42:41;;;;;;;16.60;8.95;;;1.90;99.90;;;;;;4992094;28;20045;-52
2021/12/09 08:45:10;;;;;;;21.17;9.20;;;1.90;99.90;;;;;;4990968;28;20058;-51
2021/12/09 08:47:38;;;;;;;19.10;7.80;;;1.90;99.90;;;;;;4992169;28;20038;-49
2021/12/09 08:50:07;;;;;;;14.48;8.52;;;1.90;99.90;;;;;;4991551;28;20042;-52
2021/12/09 08:52:32;;;;;;;19.20;9.40;;;1.90;99.90;;;;;;4992136;28;20438;-48
2021/12/09 08:54:58;;;;;;;19.23;8.15;;;2.00;99.90;;;;;;4992267;28;20042;-50
2021/12/09 08:57:23;;;;;;;17.55;7.95;;;2.00;99.90;;;;;;4992146;28;20089;-51
2021/12/09 08:59:49;;;;;;;18.17;9.05;;;2.00;99.90;;;;;;4992231;28;20526;-53
2021/12/09 09:02:15;;;;;;;28.05;10.35;;;2.00;99.90;;;;;;4991873;28;20044;-50
2021/12/09 09:04:41;;;;;;;21.02;9.40;;;2.10;99.90;;;;;;4991506;28;20100;-49
2021/12/09 09:07:08;;;;;;;21.65;9.57;;;2.10;99.90;;;;;;4991732;28;20134;-49
2021/12/09 09:09:34;;;;;;;22.20;9.73;;;2.00;99.90;;;;;;4992241;28;20038;-52
2021/12/09 09:12:04;;;;;;;18.38;8.48;;;2.00;99.90;;;;;;4992161;28;20042;-47
2021/12/09 09:14:29;;;;;;;21.00;9.80;;;2.00;99.90;;;;;;4991913;28;20081;-50
2021/12/09 09:16:55;;;;;;;21.27;9.55;;;2.00;99.90;;;;;;4991582;28;20050;-49
2021/12/09 09:19:21;;;;;;;18.38;8.65;;;2.10;99.90;;;;;;4991875;28;20077;-49
2021/12/09 09:21:47;;;;;;;22.10;9.68;;;2.00;99.90;;;;;;4992450;28;20034;-49
2021/12/09 09:24:13;;;;;;;19.42;9.27;;;2.00;99.90;;;;;;4995771;28;20043;-51
2021/12/09 09:26:39;;;;;;;19.05;8.93;;;2.10;99.90;;;;;;4995802;28;20376;-50
2021/12/09 09:29:05;;;;;;;16.88;8.52;;;2.00;99.90;;;;;;4995659;28;20041;-50
2021/12/09 09:31:32;;;;;;;19.50;9.55;;;2.00;99.90;;;;;;4994038;28;20120;-48
2021/12/09 09:34:02;;;;;;;18.23;9.05;;;2.00;99.90;;;;;;4995112;28;20054;-53
2021/12/09 09:36:32;;;;;;;18.52;8.75;;;2.10;99.90;;;;;;4995747;28;20077;-52
2021/12/09 09:39:11;;;;;;;18.58;8.38;;;2.10;99.90;;;;;;4995929;28;20038;-49
2021/12/09 09:41:37;;;;;;;19.20;8.25;;;2.20;99.90;;;;;;4994744;28;20710;-50
2021/12/09 09:44:13;;;;;;;19.08;8.35;;;2.10;99.90;;;;;;4995458;28;20121;-49
2021/12/09 09:46:38;;;;;;;18.92;8.50;;;2.10;99.90;;;;;;4995178;28;20446;-49
2021/12/09 09:49:06;;;;;;;16.00;8.18;;;2.20;99.90;;;;;;4995463;28;20043;-49
2021/12/09 09:51:33;;;;;;;15.65;7.63;;;2.20;99.90;;;;;;4995322;28;20061;-48
2021/12/09 09:53:59;;;;;;;18.67;7.72;;;2.20;99.90;;;;;;4995022;28;20553;-52
2021/12/09 09:56:25;;;;;;;14.82;8.48;;;2.30;99.90;;;;;;4994786;28;20141;-52
2021/12/09 09:58:59;;;;;;;16.02;7.20;;;2.30;99.90;;;;;;4994987;28;20495;-51
2021/12/09 10:01:26;;;;;;;22.52;8.02;;;2.40;99.90;;;;;;4994884;28;20420;-53
2021/12/09 10:03:59;;;;;;;15.45;7.57;;;2.50;99.90;;;;;;4995062;28;20070;-49
2021/12/09 10:06:25;;;;;;;14.98;7.50;;;2.50;99.90;;;;;;4995160;28;20117;-51
2021/12/09 10:08:50;;;;;;;15.75;6.95;;;2.50;99.90;;;;;;4994927;28;20081;-49
2021/12/09 10:11:16;;;;;;;17.38;7.28;;;2.60;99.90;;;;;;4994064;28;20435;-52
2021/12/09 10:13:43;;;;;;;15.13;7.68;;;2.60;99.90;;;;;;4994500;28;20081;-48
2021/12/09 10:16:38;;;;;;;22.63;7.57;;;2.70;99.90;;;;;;4995144;28;20042;-50
2021/12/09 10:19:15;;;;;;;16.52;7.15;;;2.80;99.90;;;;;;4994038;28;20058;-52
2021/12/09 10:21:42;;;;;;;16.70;6.90;;;2.80;99.90;;;;;;4994644;28;20045;-52
2021/12/09 10:24:08;;;;;;;16.35;7.10;;;2.80;99.90;;;;;;4994182;28;20048;-50
2021/12/09 10:26:38;;;;;;;16.67;7.78;;;2.90;99.90;;;;;;4994875;28;20113;-49
2021/12/09 10:29:20;;;;;;;12.93;6.88;;;2.90;99.90;;;;;;4994731;28;20084;-51
2021/12/09 10:31:53;;;;;;;19.13;7.60;;;2.90;99.90;;;;;;4994680;28;20442;-51
2021/12/09 10:34:39;;;;;;;17.30;7.50;;;3.00;99.90;;;;;;4994477;28;20041;-48
2021/12/09 10:37:28;;;;;;;19.63;7.90;;;3.00;99.90;;;;;;4994525;28;20038;-52
2021/12/09 10:40:15;;;;;;;18.98;7.55;;;3.10;99.90;;;;;;4994197;28;20049;-52
2021/12/09 10:42:53;;;;;;;13.23;6.97;;;3.10;99.90;;;;;;4993029;28;20046;-48
2021/12/09 10:45:20;;;;;;;19.10;7.32;;;3.20;99.90;;;;;;4994509;28;20046;-51
2021/12/09 10:48:00;;;;;;;17.27;8.00;;;3.30;99.90;;;;;;4994494;28;20470;-49
2021/12/09 10:50:38;;;;;;;20.80;8.25;;;3.30;99.90;;;;;;4994326;28;20034;-51
2021/12/09 10:55:46;;;;;;;19.08;8.13;;;3.30;99.90;;;;;;4994310;28;20050;-53
2021/12/09 10:58:15;;;;;;;18.48;8.20;;;3.30;99.90;;;;;;4994134;28;20034;-48
2021/12/09 11:00:45;;;;;;;22.33;8.52;;;3.40;99.90;;;;;;4994435;28;20050;-52
2021/12/09 11:03:11;;;;;;;17.25;8.70;;;3.40;99.90;;;;;;4992187;28;20088;-49
2021/12/09 11:05:41;;;;;;;17.55;9.07;;;3.50;99.90;;;;;;4993855;28;20038;-48
2021/12/09 11:08:17;;;;;;;20.02;9.70;;;3.50;99.90;;;;;;4976280;28;20121;-48
2021/12/09 11:10:48;;;;;;;20.25;9.60;;;3.50;99.90;;;;;;4994047;28;20049;-52
2021/12/09 11:13:21;;;;;;;22.13;10.20;;;3.50;99.90;;;;;;4993421;28;20056;-48
2021/12/09 11:15:52;;;;;;;21.58;9.30;;;3.60;99.90;;;;;;4984303;28;20098;-51
2021/12/09 11:18:33;;;;;;;22.63;10.52;;;3.60;99.90;;;;;;4974061;28;20126;-50
2021/12/09 11:21:02;;;;;;;22.05;10.30;;;3.60;99.90;;;;;;4989058;28;20050;-49
2021/12/09 11:23:37;;;;;;;26.63;11.00;;;3.60;99.90;;;;;;4993730;28;20050;-51
2021/12/09 11:26:34;;;;;;;24.17;10.88;;;3.60;99.90;;;;;;4993724;28;20045;-47
2021/12/09 11:29:08;;;;;;;24.00;10.63;;;3.60;99.90;;;;;;4993492;28;20491;-49
2021/12/09 11:31:58;;;;;;;22.55;9.80;;;3.60;99.90;;;;;;4993185;28;20038;-51
2021/12/09 11:34:28;;;;;;;30.35;10.98;;;3.50;99.90;;;;;;4993460;28;20066;-52
2021/12/09 11:36:56;;;;;;;22.83;11.40;;;3.60;99.90;;;;;;4992085;28;20125;-50
2021/12/09 11:39:30;;;;;;;27.13;11.48;;;3.50;99.90;;;;;;4979700;28;20073;-51
2021/12/09 11:42:05;;;;;;;22.35;11.15;;;3.50;99.90;;;;;;4975654;28;20159;-48
2021/12/09 11:44:32;;;;;;;22.38;11.07;;;3.50;99.90;;;;;;4975318;28;20137;-50
2021/12/09 11:46:57;;;;;;;24.27;10.80;;;3.50;99.90;;;;;;4972927;28;20475;-51
2021/12/09 11:49:23;;;;;;;25.23;11.40;;;3.60;99.90;;;;;;4991762;28;20065;-52
2021/12/09 11:51:49;;;;;;;26.85;11.80;;;3.60;99.90;;;;;;4975583;28;20462;-48
2021/12/09 11:54:16;;;;;;;22.50;10.57;;;3.60;99.90;;;;;;4975933;28;20041;-49
2021/12/09 11:57:11;;;;;;;22.05;11.48;;;3.60;99.90;;;;;;4991592;28;20122;-49
2021/12/09 12:11:19;;;;;;;23.95;12.10;;;3.70;99.90;;;;;;4993030;28;20042;-48
2021/12/09 12:13:52;;;;;;;25.95;11.82;;;3.70;99.90;;;;;;4992578;28;20038;-51
2021/12/09 12:22:01;;;;;;;25.48;12.50;;;3.80;99.90;;;;;;4992550;28;20078;-49
2021/12/09 12:24:56;;;;;;;23.08;12.15;;;3.80;99.90;;;;;;4992482;28;20403;-52
2021/12/09 12:27:36;;;;;;;28.63;12.98;;;3.80;99.90;;;;;;4992630;28;20058;-50
2021/12/09 12:33:16;;;;;;;27.00;13.88;;;3.80;99.90;;;;;;4992241;28;20100;-48
2021/12/09 12:40:58;;;;;;;30.02;14.77;;;3.90;99.90;;;;;;4993251;28;20070;-49
2021/12/09 12:43:45;;;;;;;26.92;13.73;;;3.90;99.90;;;;;;4992540;28;20078;-50
2021/12/09 12:46:38;;;;;;;28.40;14.48;;;3.90;99.90;;;;;;4991168;28;20046;-49
2021/12/09 12:49:20;;;;;;;27.58;13.77;;;4.00;99.90;;;;;;4992704;28;20120;-49
2021/12/09 12:51:55;;;;;;;31.38;13.68;;;4.00;99.90;;;;;;4992472;28;20050;-51
2021/12/09 12:57:17;;;;;;;28.48;13.85;;;4.10;99.90;;;;;;4993476;28;20050;-49
2021/12/09 12:59:46;;;;;;;28.33;13.45;;;4.10;99.90;;;;;;4996500;28;20038;-51
2021/12/09 13:05:30;;;;;;;32.90;13.82;;;4.10;99.90;;;;;;4995769;28;20053;-52
2021/12/09 13:11:02;;;;;;;26.48;14.18;;;4.10;99.90;;;;;;4994876;28;20061;-50
2021/12/09 13:13:57;;;;;;;25.92;12.82;;;4.20;99.90;;;;;;4995802;28;20051;-52
2021/12/09 13:19:18;;;;;;;29.88;14.13;;;4.20;99.90;;;;;;4995856;28;20057;-52
2021/12/09 13:21:49;;;;;;;26.60;13.10;;;4.20;99.90;;;;;;4978141;28;20048;-52
2021/12/09 13:24:39;;;;;;;28.40;13.45;;;4.20;99.90;;;;;;4996046;28;20057;-49
2021/12/09 13:27:06;;;;;;;30.27;13.85;;;4.20;99.90;;;;;;4978295;28;20461;-50
2021/12/09 13:29:46;;;;;;;25.27;12.45;;;4.20;99.90;;;;;;4995525;28;20042;-51
2021/12/09 13:55:09;;;;;;;22.52;9.98;;;4.30;99.90;;;;;;4994948;28;20290;-51
2021/12/09 13:57:50;;;;;;;22.52;11.73;;;4.40;99.90;;;;;;4995336;28;20034;-52
2021/12/09 14:00:24;;;;;;;22.73;11.05;;;4.40;99.90;;;;;;4995501;28;20045;-53
2021/12/09 14:02:54;;;;;;;18.77;11.05;;;4.30;99.90;;;;;;4975146;28;20042;-52